sensor_id;sensor_type;location;lat;lon;timestamp;pressure;altitude;pressure_sealevel;temperature;humidity
56241;BME280;42155;53.096;23.226;2023-09-18T00:00:39;100234.66;;;14.88;78.69
56241;BME280;42155;53.096;23.226;2023-09-18T00:02:40;100230.63;;;14.84;78.48
56241;BME280;42155;53.096;23.226;2023-09-18T00:04:40;100240.03;;;14.88;78.44
56241;BME280;42155;53.096;23.226;2023-09-18T00:06:41;100223.72;;;14.81;78.34
56241;BME280;42155;53.096;23.226;2023-09-18T00:08:41;100241.16;;;14.85;78.27
56241;BME280;42155;53.096;23.226;2023-09-18T00:10:42;100229.91;;;14.82;78.78
56241;BME280;42155;53.096;23.226;2023-09-18T00:12:42;100232.19;;;14.76;78.62
56241;BME280;42155;53.096;23.226;2023-09-18T00:14:43;100228.50;;;14.77;78.80
56241;BME280;42155;53.096;23.226;2023-09-18T00:16:43;100220.09;;;14.72;78.82
56241;BME280;42155;53.096;23.226;2023-09-18T00:18:43;100218.56;;;14.70;78.79
56241;BME280;42155;53.096;23.226;2023-09-18T00:20:44;100233.28;;;14.74;79.29
56241;BME280;42155;53.096;23.226;2023-09-18T00:22:44;100226.72;;;14.68;78.94
56241;BME280;42155;53.096;23.226;2023-09-18T00:24:45;100235.03;;;14.65;78.81
56241;BME280;42155;53.096;23.226;2023-09-18T00:26:45;100195.69;;;14.48;79.06
56241;BME280;42155;53.096;23.226;2023-09-18T00:28:45;100226.44;;;14.62;79.22
56241;BME280;42155;53.096;23.226;2023-09-18T00:30:50;100230.94;;;14.61;78.73
56241;BME280;42155;53.096;23.226;2023-09-18T00:32:50;100231.22;;;14.58;78.70
56241;BME280;42155;53.096;23.226;2023-09-18T00:34:50;100239.25;;;14.58;78.92
56241;BME280;42155;53.096;23.226;2023-09-18T00:36:51;100242.06;;;14.57;79.09
56241;BME280;42155;53.096;23.226;2023-09-18T00:38:51;100233.91;;;14.58;78.91
56241;BME280;42155;53.096;23.226;2023-09-18T00:40:51;100228.81;;;14.55;78.91
56241;BME280;42155;53.096;23.226;2023-09-18T00:42:52;100222.81;;;14.53;79.07
56241;BME280;42155;53.096;23.226;2023-09-18T00:44:52;100234.75;;;14.59;79.24
56241;BME280;42155;53.096;23.226;2023-09-18T00:46:53;100231.91;;;14.60;79.08
56241;BME280;42155;53.096;23.226;2023-09-18T00:48:53;100228.28;;;14.61;79.36
56241;BME280;42155;53.096;23.226;2023-09-18T00:50:54;100228.28;;;14.61;78.87
56241;BME280;42155;53.096;23.226;2023-09-18T00:52:54;100197.91;;;14.43;79.09
56241;BME280;42155;53.096;23.226;2023-09-18T00:54:55;100225.03;;;14.58;79.27
56241;BME280;42155;53.096;23.226;2023-09-18T00:56:55;100204.94;;;14.44;79.03
56241;BME280;42155;53.096;23.226;2023-09-18T00:58:55;100228.00;;;14.55;79.04
56241;BME280;42155;53.096;23.226;2023-09-18T01:00:56;100208.88;;;14.40;79.03
56241;BME280;42155;53.096;23.226;2023-09-18T01:02:57;100189.75;;;14.35;78.91
56241;BME280;42155;53.096;23.226;2023-09-18T01:04:57;100209.97;;;14.37;79.23
56241;BME280;42155;53.096;23.226;2023-09-18T01:07:01;100220.09;;;14.43;79.26
56241;BME280;42155;53.096;23.226;2023-09-18T01:09:02;100212.22;;;14.42;79.55
56241;BME280;42155;53.096;23.226;2023-09-18T01:11:10;100217.28;;;14.45;79.56
56241;BME280;42155;53.096;23.226;2023-09-18T01:13:14;100210.53;;;14.41;79.13
56241;BME280;42155;53.096;23.226;2023-09-18T01:15:30;100225.16;;;14.46;79.31
56241;BME280;42155;53.096;23.226;2023-09-18T01:17:35;100220.78;;;14.45;79.41
56241;BME280;42155;53.096;23.226;2023-09-18T01:19:48;100213.63;;;14.46;79.19
56241;BME280;42155;53.096;23.226;2023-09-18T01:21:48;100217.28;;;14.45;79.30
56241;BME280;42155;53.096;23.226;2023-09-18T01:23:49;100219.81;;;14.46;79.05
56241;BME280;42155;53.096;23.226;2023-09-18T01:25:49;100210.84;;;14.47;79.47
56241;BME280;42155;53.096;23.226;2023-09-18T01:27:49;100204.09;;;14.43;79.48
56241;BME280;42155;53.096;23.226;2023-09-18T01:29:50;100210.00;;;14.47;79.33
56241;BME280;42155;53.096;23.226;2023-09-18T01:31:50;100209.44;;;14.53;79.43
56241;BME280;42155;53.096;23.226;2023-09-18T01:33:51;100214.78;;;14.53;79.55
56241;BME280;42155;53.096;23.226;2023-09-18T01:35:51;100209.28;;;14.55;79.53
56241;BME280;42155;53.096;23.226;2023-09-18T01:37:52;100209.84;;;14.58;80.42
56241;BME280;42155;53.096;23.226;2023-09-18T01:39:53;100212.50;;;14.68;80.82
56241;BME280;42155;53.096;23.226;2023-09-18T01:41:54;100200.72;;;14.70;81.25
56241;BME280;42155;53.096;23.226;2023-09-18T01:43:54;100209.97;;;14.76;80.97
56241;BME280;42155;53.096;23.226;2023-09-18T01:45:54;100214.00;;;14.90;81.09
56241;BME280;42155;53.096;23.226;2023-09-18T01:47:55;100201.25;;;14.84;81.06
56241;BME280;42155;53.096;23.226;2023-09-18T01:49:55;100205.69;;;14.93;80.85
56241;BME280;42155;53.096;23.226;2023-09-18T01:51:56;100210.44;;;15.09;81.27
56241;BME280;42155;53.096;23.226;2023-09-18T01:53:56;100217.28;;;15.11;81.20
56241;BME280;42155;53.096;23.226;2023-09-18T01:55:57;100220.84;;;15.12;80.68
56241;BME280;42155;53.096;23.226;2023-09-18T01:57:58;100227.03;;;15.12;80.85
56241;BME280;42155;53.096;23.226;2023-09-18T01:59:59;100225.31;;;15.11;80.84
56241;BME280;42155;53.096;23.226;2023-09-18T02:01:59;100211.50;;;15.16;81.31
56241;BME280;42155;53.096;23.226;2023-09-18T02:04:00;100223.06;;;15.16;81.94
56241;BME280;42155;53.096;23.226;2023-09-18T02:06:00;100217.28;;;15.11;82.06
56241;BME280;42155;53.096;23.226;2023-09-18T02:08:00;100214.50;;;15.13;81.80
56241;BME280;42155;53.096;23.226;2023-09-18T02:10:00;100208.66;;;14.90;82.14
56241;BME280;42155;53.096;23.226;2023-09-18T02:12:01;100225.69;;;14.89;82.36
56241;BME280;42155;53.096;23.226;2023-09-18T02:14:01;100201.78;;;14.77;82.49
56241;BME280;42155;53.096;23.226;2023-09-18T02:16:02;100227.66;;;14.87;82.49
56241;BME280;42155;53.096;23.226;2023-09-18T02:18:02;100220.63;;;14.86;82.21
56241;BME280;42155;53.096;23.226;2023-09-18T02:20:03;100214.00;;;14.90;82.14
56241;BME280;42155;53.096;23.226;2023-09-18T02:22:04;100194.09;;;14.74;81.78
56241;BME280;42155;53.096;23.226;2023-09-18T02:24:05;100219.03;;;14.93;81.74
56241;BME280;42155;53.096;23.226;2023-09-18T02:26:05;100212.75;;;14.94;81.18
56241;BME280;42155;53.096;23.226;2023-09-18T02:28:06;100219.03;;;14.93;81.03
56241;BME280;42155;53.096;23.226;2023-09-18T02:30:07;100210.06;;;14.94;80.80
56241;BME280;42155;53.096;23.226;2023-09-18T02:32:07;100207.06;;;14.97;80.54
56241;BME280;42155;53.096;23.226;2023-09-18T02:34:07;100208.22;;;14.94;80.95
56241;BME280;42155;53.096;23.226;2023-09-18T02:36:08;100200.81;;;14.88;80.57
56241;BME280;42155;53.096;23.226;2023-09-18T02:38:08;100225.94;;;14.95;80.47
56241;BME280;42155;53.096;23.226;2023-09-18T02:40:09;100218.09;;;14.94;80.21
56241;BME280;42155;53.096;23.226;2023-09-18T02:42:09;100213.03;;;14.91;80.76
56241;BME280;42155;53.096;23.226;2023-09-18T02:44:10;100215.84;;;14.89;80.44
56241;BME280;42155;53.096;23.226;2023-09-18T02:46:10;100210.78;;;14.86;80.50
56241;BME280;42155;53.096;23.226;2023-09-18T02:48:10;100215.56;;;14.83;80.12
56241;BME280;42155;53.096;23.226;2023-09-18T02:50:11;100170.06;;;14.55;80.39
56241;BME280;42155;53.096;23.226;2023-09-18T02:52:11;100206.03;;;14.80;80.43
56241;BME280;42155;53.096;23.226;2023-09-18T02:54:11;100203.34;;;14.80;80.41
56241;BME280;42155;53.096;23.226;2023-09-18T02:56:12;100214.31;;;14.77;80.18
56241;BME280;42155;53.096;23.226;2023-09-18T02:58:12;100210.41;;;14.71;80.29
56241;BME280;42155;53.096;23.226;2023-09-18T03:00:13;100208.00;;;14.68;80.49
56241;BME280;42155;53.096;23.226;2023-09-18T03:02:13;100219.13;;;14.64;80.46
56241;BME280;42155;53.096;23.226;2023-09-18T03:04:13;100206.19;;;14.59;80.26
56241;BME280;42155;53.096;23.226;2023-09-18T03:06:14;100202.44;;;14.52;80.34
56241;BME280;42155;53.096;23.226;2023-09-18T03:08:15;100206.50;;;14.56;80.45
56241;BME280;42155;53.096;23.226;2023-09-18T03:10:15;100212.28;;;14.51;80.07
56241;BME280;42155;53.096;23.226;2023-09-18T03:12:15;100195.50;;;14.40;80.35
56241;BME280;42155;53.096;23.226;2023-09-18T03:14:16;100204.22;;;14.42;80.44
56241;BME280;42155;53.096;23.226;2023-09-18T03:16:16;100205.09;;;14.42;80.37
56241;BME280;42155;53.096;23.226;2023-09-18T03:18:16;100214.19;;;14.40;80.57
56241;BME280;42155;53.096;23.226;2023-09-18T03:20:17;100216.72;;;14.41;80.14
56241;BME280;42155;53.096;23.226;2023-09-18T03:22:17;100180.50;;;14.19;79.91
56241;BME280;42155;53.096;23.226;2023-09-18T03:24:17;100210.97;;;14.36;79.96
56241;BME280;42155;53.096;23.226;2023-09-18T03:26:18;100212.53;;;14.29;80.28
56241;BME280;42155;53.096;23.226;2023-09-18T03:28:18;100209.72;;;14.31;80.54
56241;BME280;42155;53.096;23.226;2023-09-18T03:30:22;100208.31;;;14.26;80.53
56241;BME280;42155;53.096;23.226;2023-09-18T03:32:22;100198.19;;;14.20;80.46
56241;BME280;42155;53.096;23.226;2023-09-18T03:34:22;100202.97;;;14.26;80.36
56241;BME280;42155;53.096;23.226;2023-09-18T03:36:23;100194.69;;;14.20;80.25
56241;BME280;42155;53.096;23.226;2023-09-18T03:38:23;100204.09;;;14.24;80.21
56241;BME280;42155;53.096;23.226;2023-09-18T03:40:23;100199.03;;;14.21;80.01
56241;BME280;42155;53.096;23.226;2023-09-18T03:42:25;100215.63;;;14.24;80.01
56241;BME280;42155;53.096;23.226;2023-09-18T03:44:26;100201.84;;;14.19;79.63
56241;BME280;42155;53.096;23.226;2023-09-18T03:46:26;100196.53;;;14.19;79.53
56241;BME280;42155;53.096;23.226;2023-09-18T03:48:27;100204.38;;;14.21;79.63
56241;BME280;42155;53.096;23.226;2023-09-18T03:50:27;100201.84;;;14.19;79.63
56241;BME280;42155;53.096;23.226;2023-09-18T03:52:27;100200.16;;;14.18;79.54
56241;BME280;42155;53.096;23.226;2023-09-18T03:54:28;100192.56;;;14.14;79.74
56241;BME280;42155;53.096;23.226;2023-09-18T03:56:28;100190.78;;;14.14;79.75
56241;BME280;42155;53.096;23.226;2023-09-18T03:58:28;100189.22;;;14.12;79.99
56241;BME280;42155;53.096;23.226;2023-09-18T04:00:29;100184.13;;;14.09;79.98
56241;BME280;42155;53.096;23.226;2023-09-18T04:02:29;100161.38;;;13.95;79.63
56241;BME280;42155;53.096;23.226;2023-09-18T04:04:29;100191.31;;;14.08;80.00
56241;BME280;42155;53.096;23.226;2023-09-18T04:06:45;100179.94;;;14.06;79.76
56241;BME280;42155;53.096;23.226;2023-09-18T04:08:45;100188.63;;;14.08;79.82
56241;BME280;42155;53.096;23.226;2023-09-18T04:10:45;100185.81;;;14.00;79.82
56241;BME280;42155;53.096;23.226;2023-09-18T04:12:46;100183.03;;;14.01;80.19
56241;BME280;42155;53.096;23.226;2023-09-18T04:14:46;100192.88;;;14.01;80.35
56241;BME280;42155;53.096;23.226;2023-09-18T04:16:46;100146.53;;;13.83;80.17
56241;BME280;42155;53.096;23.226;2023-09-18T04:18:47;100183.72;;;14.04;80.04
56241;BME280;42155;53.096;23.226;2023-09-18T04:20:47;100176.56;;;14.04;79.94
56241;BME280;42155;53.096;23.226;2023-09-18T04:22:47;100182.47;;;13.98;79.72
56241;BME280;42155;53.096;23.226;2023-09-18T04:24:48;100181.88;;;14.04;79.77
56241;BME280;42155;53.096;23.226;2023-09-18T04:26:49;100176.56;;;14.04;79.75
56241;BME280;42155;53.096;23.226;2023-09-18T04:28:49;100180.22;;;14.03;80.10
56241;BME280;42155;53.096;23.226;2023-09-18T04:30:49;100179.09;;;14.06;79.88
56241;BME280;42155;53.096;23.226;2023-09-18T04:32:50;100184.72;;;14.12;79.96
56241;BME280;42155;53.096;23.226;2023-09-18T04:34:50;100182.19;;;14.20;80.14
56241;BME280;42155;53.096;23.226;2023-09-18T04:36:50;100181.59;;;14.26;79.27
56241;BME280;42155;53.096;23.226;2023-09-18T04:38:51;100180.75;;;14.36;79.15
56241;BME280;42155;53.096;23.226;2023-09-18T04:40:58;100194.81;;;14.57;79.41
56241;BME280;42155;53.096;23.226;2023-09-18T04:42:58;100183.69;;;14.71;78.68
56241;BME280;42155;53.096;23.226;2023-09-18T04:44:59;100181.53;;;14.85;78.64
56241;BME280;42155;53.096;23.226;2023-09-18T04:46:59;100181.13;;;15.17;77.93
56241;BME280;42155;53.096;23.226;2023-09-18T04:48:59;100187.34;;;15.45;77.44
56241;BME280;42155;53.096;23.226;2023-09-18T04:51:00;100192.69;;;15.72;76.51
56241;BME280;42155;53.096;23.226;2023-09-18T04:53:00;100112.88;;;15.68;75.50
56241;BME280;42155;53.096;23.226;2023-09-18T04:55:01;100175.56;;;16.63;73.76
56241;BME280;42155;53.096;23.226;2023-09-18T04:57:01;100169.47;;;17.39;71.47
56241;BME280;42155;53.096;23.226;2023-09-18T04:59:01;100161.41;;;18.30;68.77
56241;BME280;42155;53.096;23.226;2023-09-18T05:01:02;100155.19;;;19.18;66.34
56241;BME280;42155;53.096;23.226;2023-09-18T05:03:02;100148.56;;;19.99;63.60
56241;BME280;42155;53.096;23.226;2023-09-18T05:05:03;100154.09;;;20.81;61.65
56241;BME280;42155;53.096;23.226;2023-09-18T05:07:03;100157.38;;;21.57;59.52
56241;BME280;42155;53.096;23.226;2023-09-18T05:09:03;100142.56;;;22.32;57.76
56241;BME280;42155;53.096;23.226;2023-09-18T05:11:04;100145.84;;;23.11;56.16
56241;BME280;42155;53.096;23.226;2023-09-18T05:13:04;100145.94;;;23.93;54.28
56241;BME280;42155;53.096;23.226;2023-09-18T05:15:05;100148.88;;;24.84;53.21
56241;BME280;42155;53.096;23.226;2023-09-18T05:17:06;100143.09;;;25.83;51.28
56241;BME280;42155;53.096;23.226;2023-09-18T05:19:06;100143.53;;;26.87;50.10
56241;BME280;42155;53.096;23.226;2023-09-18T05:21:07;100136.97;;;27.80;48.12
56241;BME280;42155;53.096;23.226;2023-09-18T05:23:07;100133.09;;;28.64;46.55
56241;BME280;42155;53.096;23.226;2023-09-18T05:25:09;100135.25;;;29.50;45.11
56241;BME280;42155;53.096;23.226;2023-09-18T05:27:09;100126.31;;;30.28;43.75
56241;BME280;42155;53.096;23.226;2023-09-18T05:29:09;100128.84;;;30.85;42.65
56241;BME280;42155;53.096;23.226;2023-09-18T05:31:10;100117.38;;;31.54;41.57
56241;BME280;42155;53.096;23.226;2023-09-18T05:33:10;100132.19;;;32.39;40.29
56241;BME280;42155;53.096;23.226;2023-09-18T05:35:11;100130.75;;;33.11;39.04
56241;BME280;42155;53.096;23.226;2023-09-18T05:37:11;100102.31;;;33.63;37.44
56241;BME280;42155;53.096;23.226;2023-09-18T05:39:12;100126.34;;;34.24;36.49
56241;BME280;42155;53.096;23.226;2023-09-18T05:41:12;100125.75;;;34.83;36.23
56241;BME280;42155;53.096;23.226;2023-09-18T05:43:13;100118.91;;;35.45;35.13
56241;BME280;42155;53.096;23.226;2023-09-18T05:45:14;100124.66;;;35.59;35.01
56241;BME280;42155;53.096;23.226;2023-09-18T05:47:15;100126.81;;;36.07;34.57
56241;BME280;42155;53.096;23.226;2023-09-18T05:49:15;100120.69;;;36.73;33.07
56241;BME280;42155;53.096;23.226;2023-09-18T05:51:15;100127.41;;;37.39;32.71
56241;BME280;42155;53.096;23.226;2023-09-18T05:53:16;100101.00;;;37.84;31.33
56241;BME280;42155;53.096;23.226;2023-09-18T05:55:16;100133.91;;;38.56;30.59
56241;BME280;42155;53.096;23.226;2023-09-18T05:57:17;100123.47;;;39.08;30.33
56241;BME280;42155;53.096;23.226;2023-09-18T05:59:18;100106.50;;;39.37;29.43
56241;BME280;42155;53.096;23.226;2023-09-18T06:01:18;100085.84;;;39.66;29.46
56241;BME280;42155;53.096;23.226;2023-09-18T06:03:18;100116.91;;;40.27;28.45
56241;BME280;42155;53.096;23.226;2023-09-18T06:05:19;100122.22;;;40.68;27.82
56241;BME280;42155;53.096;23.226;2023-09-18T06:07:19;100120.59;;;41.07;27.71
56241;BME280;42155;53.096;23.226;2023-09-18T06:09:19;100109.66;;;41.36;27.29
56241;BME280;42155;53.096;23.226;2023-09-18T06:11:20;100107.91;;;41.66;26.73
56241;BME280;42155;53.096;23.226;2023-09-18T06:13:20;100115.97;;;42.03;26.64
56241;BME280;42155;53.096;23.226;2023-09-18T06:15:21;100117.25;;;42.31;25.75
56241;BME280;42155;53.096;23.226;2023-09-18T06:17:21;100110.41;;;42.58;26.02
56241;BME280;42155;53.096;23.226;2023-09-18T06:19:22;100105.16;;;42.57;25.54
56241;BME280;42155;53.096;23.226;2023-09-18T06:21:22;100110.72;;;42.65;25.59
56241;BME280;42155;53.096;23.226;2023-09-18T06:23:23;100102.56;;;42.52;25.66
56241;BME280;42155;53.096;23.226;2023-09-18T06:25:23;100098.00;;;42.38;25.92
56241;BME280;42155;53.096;23.226;2023-09-18T06:27:23;100090.97;;;42.32;26.12
56241;BME280;42155;53.096;23.226;2023-09-18T06:29:24;100097.88;;;42.17;26.24
56241;BME280;42155;53.096;23.226;2023-09-18T06:31:24;100083.16;;;41.47;26.48
56241;BME280;42155;53.096;23.226;2023-09-18T06:33:24;100099.28;;;40.31;28.21
56241;BME280;42155;53.096;23.226;2023-09-18T06:35:25;100100.41;;;38.53;30.02
56241;BME280;42155;53.096;23.226;2023-09-18T06:37:25;100087.31;;;36.93;33.16
56241;BME280;42155;53.096;23.226;2023-09-18T06:39:25;100082.78;;;35.81;34.27
56241;BME280;42155;53.096;23.226;2023-09-18T06:41:26;100091.78;;;34.93;35.76
56241;BME280;42155;53.096;23.226;2023-09-18T06:43:26;100085.06;;;34.04;37.04
56241;BME280;42155;53.096;23.226;2023-09-18T06:45:26;100094.22;;;33.21;38.00
56241;BME280;42155;53.096;23.226;2023-09-18T06:47:27;100091.88;;;32.45;39.14
56241;BME280;42155;53.096;23.226;2023-09-18T06:49:27;100093.25;;;31.83;40.02
56241;BME280;42155;53.096;23.226;2023-09-18T06:51:27;100092.38;;;31.29;41.19
56241;BME280;42155;53.096;23.226;2023-09-18T06:53:28;100099.25;;;30.87;41.97
56241;BME280;42155;53.096;23.226;2023-09-18T06:55:28;100102.56;;;30.51;42.63
56241;BME280;42155;53.096;23.226;2023-09-18T06:57:28;100108.63;;;30.19;43.83
56241;BME280;42155;53.096;23.226;2023-09-18T06:59:29;100057.88;;;29.66;44.27
56241;BME280;42155;53.096;23.226;2023-09-18T07:01:29;100098.25;;;29.59;44.95
56241;BME280;42155;53.096;23.226;2023-09-18T07:03:29;100096.25;;;29.42;45.18
56241;BME280;42155;53.096;23.226;2023-09-18T07:05:30;100102.00;;;29.29;45.34
56241;BME280;42155;53.096;23.226;2023-09-18T07:07:30;100086.19;;;29.03;45.94
56241;BME280;42155;53.096;23.226;2023-09-18T07:09:30;100067.91;;;28.68;46.56
56241;BME280;42155;53.096;23.226;2023-09-18T07:11:31;100092.25;;;28.70;46.48
56241;BME280;42155;53.096;23.226;2023-09-18T07:13:31;100090.00;;;28.55;46.81
56241;BME280;42155;53.096;23.226;2023-09-18T07:15:31;100071.22;;;28.23;47.37
56241;BME280;42155;53.096;23.226;2023-09-18T07:17:34;100094.84;;;28.29;47.75
56241;BME280;42155;53.096;23.226;2023-09-18T07:19:35;100095.06;;;28.16;48.47
56241;BME280;42155;53.096;23.226;2023-09-18T07:21:35;100088.66;;;28.10;47.98
56241;BME280;42155;53.096;23.226;2023-09-18T07:23:35;100088.41;;;28.00;48.26
56241;BME280;42155;53.096;23.226;2023-09-18T07:25:36;100074.19;;;27.68;49.05
56241;BME280;42155;53.096;23.226;2023-09-18T07:27:36;100089.03;;;27.72;49.19
56241;BME280;42155;53.096;23.226;2023-09-18T07:29:36;100093.44;;;27.73;49.09
56241;BME280;42155;53.096;23.226;2023-09-18T07:31:37;100096.09;;;27.61;49.66
56241;BME280;42155;53.096;23.226;2023-09-18T07:33:37;100099.34;;;27.70;49.86
56241;BME280;42155;53.096;23.226;2023-09-18T07:35:38;100072.25;;;27.57;49.49
56241;BME280;42155;53.096;23.226;2023-09-18T07:37:38;100093.88;;;27.70;49.47
56241;BME280;42155;53.096;23.226;2023-09-18T07:39:38;100089.91;;;27.54;49.57
56241;BME280;42155;53.096;23.226;2023-09-18T07:41:39;100090.44;;;27.45;49.88
56241;BME280;42155;53.096;23.226;2023-09-18T07:43:39;100094.91;;;27.57;50.28
56241;BME280;42155;53.096;23.226;2023-09-18T07:45:39;100100.63;;;27.67;49.76
56241;BME280;42155;53.096;23.226;2023-09-18T07:47:40;100096.78;;;27.75;49.69
56241;BME280;42155;53.096;23.226;2023-09-18T07:49:40;100097.47;;;27.82;49.18
56241;BME280;42155;53.096;23.226;2023-09-18T07:51:40;100107.59;;;27.94;48.72
56241;BME280;42155;53.096;23.226;2023-09-18T07:53:41;100061.31;;;27.75;48.71
56241;BME280;42155;53.096;23.226;2023-09-18T07:55:42;100095.63;;;27.95;48.85
56241;BME280;42155;53.096;23.226;2023-09-18T07:57:42;100075.22;;;27.85;48.89
56241;BME280;42155;53.096;23.226;2023-09-18T07:59:43;100046.44;;;27.59;48.86
56241;BME280;42155;53.096;23.226;2023-09-18T08:01:43;100096.25;;;27.97;49.78
56241;BME280;42155;53.096;23.226;2023-09-18T08:03:43;100088.75;;;28.04;49.29
56241;BME280;42155;53.096;23.226;2023-09-18T08:05:44;100080.56;;;28.04;48.66
56241;BME280;42155;53.096;23.226;2023-09-18T08:07:44;100067.88;;;27.98;49.85
56241;BME280;42155;53.096;23.226;2023-09-18T08:09:44;100073.34;;;27.98;49.16
56241;BME280;42155;53.096;23.226;2023-09-18T08:11:45;100091.25;;;27.94;48.84
56241;BME280;42155;53.096;23.226;2023-09-18T08:13:45;100081.28;;;27.87;49.59
56241;BME280;42155;53.096;23.226;2023-09-18T08:15:46;100081.63;;;27.91;49.54
56241;BME280;42155;53.096;23.226;2023-09-18T08:17:46;100080.56;;;27.92;49.02
56241;BME280;42155;53.096;23.226;2023-09-18T08:19:50;100088.63;;;27.99;49.60
56241;BME280;42155;53.096;23.226;2023-09-18T08:21:50;100075.25;;;28.09;49.18
56241;BME280;42155;53.096;23.226;2023-09-18T08:23:51;100076.34;;;28.20;49.09
56241;BME280;42155;53.096;23.226;2023-09-18T08:25:51;100083.31;;;28.27;48.26
56241;BME280;42155;53.096;23.226;2023-09-18T08:27:51;100080.84;;;28.26;48.50
56241;BME280;42155;53.096;23.226;2023-09-18T08:29:52;100083.56;;;28.26;48.18
56241;BME280;42155;53.096;23.226;2023-09-18T08:31:52;100081.44;;;28.16;48.73
56241;BME280;42155;53.096;23.226;2023-09-18T08:33:52;100075.47;;;28.19;48.78
56241;BME280;42155;53.096;23.226;2023-09-18T08:35:53;100070.03;;;28.19;48.48
56241;BME280;42155;53.096;23.226;2023-09-18T08:37:53;100073.38;;;28.21;48.84
56241;BME280;42155;53.096;23.226;2023-09-18T08:39:53;100081.09;;;28.24;48.69
56241;BME280;42155;53.096;23.226;2023-09-18T08:41:58;100077.88;;;28.27;48.03
56241;BME280;42155;53.096;23.226;2023-09-18T08:44:03;100065.75;;;28.23;48.82
56241;BME280;42155;53.096;23.226;2023-09-18T08:46:03;100077.88;;;28.27;48.51
56241;BME280;42155;53.096;23.226;2023-09-18T08:48:05;100082.13;;;28.23;48.65
56241;BME280;42155;53.096;23.226;2023-09-18T08:50:08;100081.91;;;28.13;48.65
56241;BME280;42155;53.096;23.226;2023-09-18T08:52:09;100062.69;;;28.08;48.69
56241;BME280;42155;53.096;23.226;2023-09-18T08:54:10;100066.84;;;28.10;48.53
56241;BME280;42155;53.096;23.226;2023-09-18T08:56:12;100063.25;;;28.10;48.46
56241;BME280;42155;53.096;23.226;2023-09-18T08:58:12;100072.06;;;28.12;49.13
56241;BME280;42155;53.096;23.226;2023-09-18T09:00:13;100060.31;;;28.11;48.72
56241;BME280;42155;53.096;23.226;2023-09-18T09:02:13;100066.72;;;28.17;48.30
56241;BME280;42155;53.096;23.226;2023-09-18T09:04:14;100064.56;;;28.19;48.97
56241;BME280;42155;53.096;23.226;2023-09-18T09:06:14;100060.78;;;28.20;49.12
56241;BME280;42155;53.096;23.226;2023-09-18T09:08:15;100066.59;;;28.24;48.75
56241;BME280;42155;53.096;23.226;2023-09-18T09:10:16;100053.81;;;28.24;47.87
56241;BME280;42155;53.096;23.226;2023-09-18T09:12:46;100043.13;;;28.11;47.66
56241;BME280;42155;53.096;23.226;2023-09-18T09:15:03;100040.38;;;28.11;48.42
56241;BME280;42155;53.096;23.226;2023-09-18T09:17:03;100032.44;;;28.21;47.92
56241;BME280;42155;53.096;23.226;2023-09-18T09:19:04;100039.44;;;28.29;47.60
56241;BME280;42155;53.096;23.226;2023-09-18T09:21:04;100044.34;;;28.38;48.12
56241;BME280;42155;53.096;23.226;2023-09-18T09:23:06;100046.69;;;28.47;47.24
56241;BME280;42155;53.096;23.226;2023-09-18T09:25:26;100044.66;;;28.54;47.28
56241;BME280;42155;53.096;23.226;2023-09-18T09:27:27;100019.41;;;28.35;47.47
56241;BME280;42155;53.096;23.226;2023-09-18T09:29:27;100042.66;;;28.49;47.68
56241;BME280;42155;53.096;23.226;2023-09-18T09:31:29;100030.66;;;28.50;48.23
56241;BME280;42155;53.096;23.226;2023-09-18T09:33:30;100040.03;;;28.54;47.47
56241;BME280;42155;53.096;23.226;2023-09-18T09:35:33;100037.06;;;28.56;47.79
56241;BME280;42155;53.096;23.226;2023-09-18T09:37:34;100017.00;;;28.50;47.37
56241;BME280;42155;53.096;23.226;2023-09-18T09:39:34;100022.56;;;28.67;47.20
56241;BME280;42155;53.096;23.226;2023-09-18T09:41:35;100027.06;;;28.73;47.03
56241;BME280;42155;53.096;23.226;2023-09-18T09:43:35;100037.88;;;28.80;46.16
56241;BME280;42155;53.096;23.226;2023-09-18T09:45:36;100022.31;;;28.80;45.82
56241;BME280;42155;53.096;23.226;2023-09-18T09:47:36;100032.16;;;28.81;45.80
56241;BME280;42155;53.096;23.226;2023-09-18T09:49:47;100020.63;;;28.79;45.81
56241;BME280;42155;53.096;23.226;2023-09-18T09:51:47;100023.13;;;28.81;45.51
56241;BME280;42155;53.096;23.226;2023-09-18T09:53:48;100007.84;;;28.68;45.30
56241;BME280;42155;53.096;23.226;2023-09-18T09:55:54;100013.28;;;28.68;45.56
56241;BME280;42155;53.096;23.226;2023-09-18T10:00:05;100011.22;;;28.87;45.89
56241;BME280;42155;53.096;23.226;2023-09-18T10:02:07;100018.03;;;28.84;45.30
56241;BME280;42155;53.096;23.226;2023-09-18T10:04:11;100019.28;;;28.93;45.12
56241;BME280;42155;53.096;23.226;2023-09-18T10:06:12;100006.13;;;28.90;44.90
56241;BME280;42155;53.096;23.226;2023-09-18T10:08:17;100012.31;;;28.86;44.69
56241;BME280;42155;53.096;23.226;2023-09-18T10:10:18;100006.06;;;28.62;45.77
56241;BME280;42155;53.096;23.226;2023-09-18T10:12:19;100008.69;;;28.57;46.72
56241;BME280;42155;53.096;23.226;2023-09-18T10:14:29;100009.16;;;28.54;46.16
56241;BME280;42155;53.096;23.226;2023-09-18T10:16:31;99974.66;;;28.48;46.29
56241;BME280;42155;53.096;23.226;2023-09-18T10:18:44;99993.50;;;28.49;46.56
56241;BME280;42155;53.096;23.226;2023-09-18T10:20:51;99991.25;;;28.58;46.38
56241;BME280;42155;53.096;23.226;2023-09-18T10:22:56;99972.03;;;28.53;46.12
56241;BME280;42155;53.096;23.226;2023-09-18T10:25:01;99971.06;;;28.59;46.22
56241;BME280;42155;53.096;23.226;2023-09-18T10:27:04;99977.69;;;28.63;45.90